Etusivu
METAR-TAF:

METAR-TAF

Lentoasemat :

Göteborg City Airport

Göteborg, Ruotsi

Leveyspiiri: 57-47N, Pituuspiiri: 011-53E, korkeus merenpinnasta: 20 m

Tämänhetkinen sää

Tämä raportti tehtiin 35 minuuttia sitten, kello 21.20 UTC
tyyntä
Lämpötila 15°C
Kosteus 88%
Ilmanpaine 1013 hPa
Näkyvyys 10 km tai enemmän

METAR: ESGP 122120Z AUTO 00000KT 9999 NCD 15/13 Q1013

Aika: 23:55 (21:55 UTC)

Sääennuste

Tämä raportti tehtiin 7 tuntia ja 25 minuuttia sitten, kello 14.30 UTC
Ennuste voimassa 12. päivästä klo 15 UTC - 12. päivään klo 17 UTC
Tuuli 8 kn lännestä
Näkyvyys 10 km tai enemmän
Hajanaisia pilviä 3000 ft:n korkeudessa

TAF: ESGP 121430Z 1215/1217 27008KT 9999 SCT030

Säähavainnot ja -ennusteet yli 4000 lentoasemalta (METAR- ja TAF-raportit).

Käytössä olevat sääasemat on merkitty karttaan keltaisilla ja punaisilla pisteillä.

Aseta hiiri pisteen päälle nähdäksesi sääaseman nimen.

Klikkaa sitten nähdäksesi säähavainnot ja -ennusteet.

Kartan vaihtaminen: klikkaa mustalla rastilla varustettuja vihreitä pisteitä, niin voit zoomata sisään; viivalla varustettua vihreää pistettä, niin voit zoomata ulos tai vihreitä nuolia, niin pääset viereisille kartoille.


METAR-TAF: